Air Resources Laboratory banner image
Air Resources Laboratory web site National Oceanic and Atmospheric Administration (NOAA)

sd metar


K2WX 170356Z AUTO 14003KT 23/13 A3007 RMK AO1 SLP157 T02330128 $=
K8D3 170356Z AUTO 19004KT 19/17 A3009 RMK AO1 SLP173 T01940167=
K9V9 170355Z AUTO 17005KT 10SM CLR 15/15 A3014 RMK AO2 T01540154=
KABR 170353Z AUTO 18011KT 10SM CLR 21/17 A3010 RMK AO2 SLP186 T02110167=
KATY 170353Z AUTO 20006KT 10SM CLR 19/17 A3013 RMK AO2 SLP198 T01940167=
KBKX 170356Z AUTO 00000KT 10SM CLR 17/17 A3016 RMK AO2 SLP220 T01720167=
KCUT 170353Z AUTO 12003KT 10SM CLR 18/08 A3028 RMK AO2 SLP186 T01830083=
KD07 170356Z AUTO 16010KT 22/15 A3010 RMK AO1 SLP180 T02170150=
KFSD 170356Z 00000KT 10SM CLR 19/17 A3015 RMK AO2 SLP203 T01940167=
KHON 170355Z AUTO 18006KT 10SM CLR 21/16 A3013 RMK AO2 SLP196 T02060156=
KIEN 170352Z AUTO 13005KT 10SM CLR 19/15 A3017 RMK AO2 SLP189 T01890150=
KLUD 170355Z AUTO 19008KT 7SM CLR 33/15 A2991 RMK AO2 T03280150=
KMBG 170352Z AUTO 17009KT 10SM CLR 23/16 A3006 RMK AO2 SLP169 T02330156=
KMHE 170353Z AUTO 00000KT 10SM CLR 19/16 A3014 RMK AO2 SLP202 T01940161=
KPHP 170355Z AUTO 15008KT 10SM CLR 21/16 A3011 RMK AO2 SLP178 T02110156=
KPIR 170353Z AUTO 19010KT 10SM CLR 21/16 A3011 RMK AO2 SLP186 T02060156=
KRAP 170352Z 15007KT 10SM CLR 21/13 A3014 RMK AO2 SLP182 T02060128=
KRCA 170356Z 17010KT 10SM CLR 23/12 A3011 RMK AO2A SLP173 T02280121 $=
KSPF 170355Z AUTO VRB04KT 10SM CLR 22/08 A3015 RMK AO2=
KYKN 170356Z AUTO 00000KT 10SM CLR 19/18 A3015 RMK AO2 SLP215 T01940178=